createdAt,value
2019-05-01T00:03:45.275Z,19.60
2019-05-01T00:07:52.171Z,20.00
2019-05-01T00:11:59.276Z,20.67
2019-05-01T00:16:08.214Z,21.57
2019-05-01T00:20:15.477Z,21.90
2019-05-01T00:24:22.209Z,19.73
2019-05-01T00:28:29.146Z,22.17
2019-05-01T00:32:36.058Z,21.77
2019-05-01T00:36:42.987Z,21.53
2019-05-01T00:40:49.853Z,18.60
2019-05-01T00:44:56.628Z,18.60
2019-05-01T00:49:03.717Z,18.77
2019-05-01T00:53:10.510Z,20.63
2019-05-01T00:57:33.310Z,20.73
2019-05-01T01:01:59.188Z,21.33
2019-05-01T01:06:08.608Z,18.87
2019-05-01T01:10:15.989Z,21.97
2019-05-01T01:14:23.370Z,20.93
2019-05-01T01:18:30.119Z,24.07
2019-05-01T01:22:36.844Z,23.00
2019-05-01T01:26:43.545Z,22.00
2019-05-01T01:30:56.671Z,20.70
2019-05-01T01:34:58.822Z,20.40
2019-05-01T01:39:06.776Z,20.87
2019-05-01T01:43:33.155Z,23.17
2019-05-01T01:47:58.762Z,23.33
2019-05-01T01:52:05.649Z,21.77
2019-05-01T01:56:12.702Z,23.73
2019-05-01T02:00:21.246Z,23.90
2019-05-01T02:04:49.847Z,23.83
2019-05-01T02:08:56.997Z,25.90
2019-05-01T02:13:04.067Z,27.00
2019-05-01T02:17:10.916Z,23.80
2019-05-01T02:21:17.692Z,23.87
2019-05-01T02:25:24.854Z,22.37
2019-05-01T02:29:38.635Z,22.27
2019-05-01T02:33:47.565Z,25.57
2019-05-01T02:37:55.955Z,23.97
2019-05-01T02:42:04.128Z,27.37
2019-05-01T02:46:13.711Z,24.20
2019-05-01T02:50:24.331Z,23.57
2019-05-01T02:54:31.462Z,24.47
2019-05-01T02:58:40.497Z,29.40
2019-05-01T03:02:47.708Z,25.27
2019-05-01T03:06:55.356Z,26.50
2019-05-01T03:11:02.096Z,27.43
2019-05-01T03:15:09.947Z,25.33
2019-05-01T03:19:24.112Z,28.47
2019-05-01T03:23:40.820Z,27.10
2019-05-01T03:27:47.943Z,24.83
2019-05-01T03:32:15.883Z,27.30
2019-05-01T03:36:04.336Z,27.67
2019-05-01T03:40:12.331Z,26.33
2019-05-01T03:44:20.113Z,25.47
2019-05-01T03:48:27.917Z,28.60
2019-05-01T03:52:34.827Z,26.23
2019-05-01T03:56:41.758Z,27.10
2019-05-01T04:00:58.988Z,27.60
2019-05-01T04:05:06.119Z,28.17
2019-05-01T04:09:13.034Z,26.00
2019-05-01T04:13:19.765Z,25.90
2019-05-01T04:17:39.358Z,24.83
2019-05-01T04:21:53.331Z,25.90
2019-05-01T04:26:00.048Z,28.53
2019-05-01T04:30:28.878Z,27.93
2019-05-01T04:34:42.036Z,24.80
2019-05-01T04:38:49.101Z,28.97
2019-05-01T04:42:56.116Z,26.10
2019-05-01T04:47:03.426Z,25.47
2019-05-01T04:51:10.840Z,28.10
2019-05-01T04:55:18.869Z,27.57
2019-05-01T04:59:25.913Z,26.23
2019-05-01T05:03:33.006Z,28.70
2019-05-01T05:07:39.837Z,27.57
2019-05-01T05:11:51.703Z,26.27
2019-05-01T05:16:21.007Z,29.13
2019-05-01T05:20:28.096Z,28.50
2019-05-01T05:24:34.951Z,27.17
2019-05-01T05:28:43.426Z,29.00
2019-05-01T05:32:53.468Z,29.83
2019-05-01T05:37:05.781Z,30.27
2019-05-01T05:41:14.054Z,29.00
2019-05-01T05:45:21.066Z,28.07
2019-05-01T05:49:28.029Z,25.93
2019-05-01T05:53:41.243Z,26.83
2019-05-01T05:58:10.961Z,27.53
2019-05-01T06:02:40.896Z,28.30
2019-05-01T06:07:09.555Z,27.13
2019-05-01T06:11:39.235Z,27.57
2019-05-01T06:16:12.286Z,31.90
2019-05-01T06:20:41.390Z,28.40
2019-05-01T06:24:50.522Z,28.37
2019-05-01T06:29:00.632Z,28.80
2019-05-01T06:33:09.501Z,29.90
2019-05-01T06:37:15.982Z,27.07
2019-05-01T06:41:23.330Z,26.87
2019-05-01T06:45:30.265Z,28.13
2019-05-01T06:49:49.414Z,25.97
2019-05-01T06:53:56.613Z,27.87
2019-05-01T06:58:03.478Z,30.30
2019-05-01T07:02:15.967Z,25.70
2019-05-01T07:06:26.048Z,29.23
2019-05-01T07:10:43.186Z,26.83
2019-05-01T07:14:40.156Z,24.63
2019-05-01T07:18:46.896Z,26.63
2019-05-01T07:22:54.400Z,28.37
2019-05-01T07:27:01.146Z,28.70
2019-05-01T07:31:12.400Z,26.13
2019-05-01T07:35:19.178Z,30.80
2019-05-01T07:39:26.055Z,27.37
2019-05-01T07:43:46.635Z,26.40
2019-05-01T07:47:53.934Z,26.10
2019-05-01T07:52:01.793Z,26.97
2019-05-01T07:56:10.281Z,27.87
2019-05-01T08:00:28.027Z,26.93
2019-05-01T08:04:36.679Z,26.87
2019-05-01T08:08:43.144Z,28.70
2019-05-01T08:12:49.891Z,29.10
2019-05-01T08:16:56.723Z,29.63
2019-05-01T08:21:21.057Z,26.60
2019-05-01T08:25:28.723Z,26.23
2019-05-01T08:29:55.080Z,27.13
2019-05-01T08:34:05.402Z,26.97
2019-05-01T08:38:12.254Z,25.57
2019-05-01T08:42:18.972Z,27.43
2019-05-01T08:46:35.061Z,25.83
2019-05-01T08:50:41.953Z,25.37
2019-05-01T08:54:49.928Z,28.03
2019-05-01T08:58:56.769Z,27.77
2019-05-01T09:03:08.505Z,24.20
2019-05-01T09:07:14.723Z,25.77
2019-05-01T09:11:20.567Z,26.10
2019-05-01T09:15:29.520Z,26.97
2019-05-01T09:19:37.921Z,26.87
2019-05-01T09:23:51.549Z,28.47
2019-05-01T09:28:07.615Z,26.83
2019-05-01T09:32:14.547Z,27.13
2019-05-01T09:36:22.256Z,27.03
2019-05-01T09:40:29.362Z,26.57
2019-05-01T09:44:36.477Z,28.47
2019-05-01T09:48:44.259Z,26.87
2019-05-01T09:53:09.604Z,28.50
2019-05-01T09:57:16.503Z,27.97
2019-05-01T10:01:24.613Z,27.07
2019-05-01T10:05:31.853Z,27.97
2019-05-01T10:09:57.408Z,26.93
2019-05-01T10:14:04.879Z,26.83
2019-05-01T10:18:12.032Z,25.13
2019-05-01T10:22:19.278Z,24.43
2019-05-01T10:26:27.653Z,24.20
2019-05-01T10:30:56.291Z,26.60
2019-05-01T10:35:14.199Z,27.67
2019-05-01T10:39:19.786Z,25.70
2019-05-01T10:43:27.625Z,25.17
2019-05-01T10:47:34.531Z,25.50
2019-05-01T10:51:41.738Z,24.40
2019-05-01T10:55:48.545Z,23.80
2019-05-01T10:59:55.658Z,21.10
2019-05-01T11:04:02.662Z,20.23
2019-05-01T11:08:09.445Z,18.73
2019-05-01T11:12:16.334Z,24.50
2019-05-01T11:16:23.103Z,18.90
2019-05-01T11:20:31.501Z,16.47
2019-05-01T11:24:38.564Z,16.80
2019-05-01T11:28:48.194Z,18.97
2019-05-01T11:33:06.312Z,17.10
2019-05-01T11:37:28.236Z,16.27
2019-05-01T11:41:42.635Z,17.33
2019-05-01T11:45:49.523Z,18.90
2019-05-01T11:49:56.777Z,16.90
2019-05-01T11:54:03.933Z,16.47
2019-05-01T11:58:10.820Z,17.07
2019-05-01T12:02:20.228Z,17.03
2019-05-01T12:06:27.142Z,15.77
2019-05-01T12:10:33.898Z,16.00
2019-05-01T12:14:43.780Z,17.00
2019-05-01T12:18:52.264Z,17.30
2019-05-01T12:22:59.714Z,15.97
2019-05-01T12:27:08.169Z,18.70
2019-05-01T12:31:15.711Z,18.17
2019-05-01T12:35:22.696Z,19.17
2019-05-01T12:39:30.931Z,17.27
2019-05-01T12:43:38.016Z,23.50
2019-05-01T12:48:00.582Z,15.60
2019-05-01T12:52:15.488Z,15.60
2019-05-01T12:56:28.751Z,15.57
2019-05-01T13:00:48.114Z,16.70
2019-05-01T13:04:55.286Z,16.23
2019-05-01T13:09:02.170Z,17.53
2019-05-01T13:13:11.244Z,15.57
2019-05-01T13:17:18.238Z,19.80
2019-05-01T13:21:25.336Z,16.40
2019-05-01T13:25:32.205Z,16.47
2019-05-01T13:29:50.998Z,14.70
2019-05-01T13:33:57.815Z,14.13
2019-05-01T13:38:04.650Z,13.80
2019-05-01T13:42:11.514Z,18.13
2019-05-01T13:46:18.517Z,16.43
2019-05-01T13:50:25.636Z,15.73
2019-05-01T13:54:32.450Z,15.47
2019-05-01T13:58:40.173Z,14.60
2019-05-01T14:02:47.250Z,15.93
2019-05-01T14:06:54.245Z,14.00
2019-05-01T14:11:00.995Z,13.40
2019-05-01T14:15:08.170Z,13.20
2019-05-01T14:19:15.655Z,13.87
2019-05-01T14:23:44.438Z,17.00
2019-05-01T14:27:51.319Z,15.13
2019-05-01T14:31:58.148Z,13.83
2019-05-01T14:36:05.140Z,13.47
2019-05-01T14:40:12.384Z,12.83
2019-05-01T14:44:21.114Z,12.77
2019-05-01T14:48:27.856Z,12.77
2019-05-01T14:52:34.694Z,13.03
2019-05-01T14:56:43.342Z,12.43
2019-05-01T15:00:50.175Z,11.57
2019-05-01T15:04:59.223Z,12.00
2019-05-01T15:09:08.878Z,11.77
2019-05-01T15:13:40.962Z,20.33
2019-05-01T15:18:00.131Z,20.50
2019-05-01T15:22:06.981Z,21.83
2019-05-01T15:26:13.937Z,15.20
2019-05-01T15:30:20.847Z,11.57
2019-05-01T15:34:27.944Z,12.67
2019-05-01T15:38:35.086Z,10.57
2019-05-01T15:42:49.835Z,10.20
2019-05-01T15:46:56.820Z,10.13
2019-05-01T15:51:03.625Z,11.93
2019-05-01T15:55:10.989Z,9.77
2019-05-01T15:59:18.069Z,11.33
2019-05-01T16:03:27.839Z,9.43
2019-05-01T16:07:41.703Z,11.47
2019-05-01T16:12:11.680Z,10.13
2019-05-01T16:16:22.052Z,9.60
2019-05-01T16:20:31.858Z,10.60
2019-05-01T16:24:38.735Z,11.60
2019-05-01T16:28:45.614Z,10.20
2019-05-01T16:32:53.701Z,11.23
2019-05-01T16:37:02.078Z,11.33
2019-05-01T16:41:09.653Z,11.53
2019-05-01T16:45:17.250Z,12.90
2019-05-01T16:49:24.216Z,12.70
2019-05-01T16:53:32.247Z,13.77
2019-05-01T16:57:39.234Z,11.20
2019-05-01T17:02:13.732Z,12.83
2019-05-01T17:06:45.160Z,10.60
2019-05-01T17:10:53.942Z,11.73
2019-05-01T17:15:00.670Z,12.80
2019-05-01T17:19:08.434Z,11.07
2019-05-01T17:23:15.216Z,12.23
2019-05-01T17:27:21.941Z,14.17
2019-05-01T17:31:28.710Z,13.70
2019-05-01T17:35:36.897Z,10.70
2019-05-01T17:39:45.108Z,15.17
2019-05-01T17:43:56.586Z,12.63
2019-05-01T17:48:05.311Z,10.13
2019-05-01T17:52:12.213Z,12.43
2019-05-01T17:56:27.614Z,13.10
2019-05-01T18:00:43.201Z,12.93
2019-05-01T18:05:01.413Z,11.63
2019-05-01T18:09:13.590Z,11.50
2019-05-01T18:13:20.535Z,11.80
2019-05-01T18:17:27.909Z,10.07
2019-05-01T18:21:34.967Z,11.07
2019-05-01T18:25:48.633Z,11.23
2019-05-01T18:29:58.198Z,11.90
2019-05-01T18:34:53.826Z,11.17
2019-05-01T18:39:47.748Z,13.13
2019-05-01T18:44:10.031Z,12.37
2019-05-01T18:48:20.493Z,12.43
2019-05-01T18:52:34.238Z,14.17
2019-05-01T18:56:44.014Z,11.67
2019-05-01T19:00:51.020Z,14.63
2019-05-01T19:04:59.223Z,11.63
2019-05-01T19:09:15.110Z,10.83
2019-05-01T19:13:19.137Z,13.10
2019-05-01T19:17:28.816Z,11.47
2019-05-01T19:21:41.709Z,14.97
2019-05-01T19:25:50.689Z,13.00
2019-05-01T19:29:57.985Z,13.07
2019-05-01T19:34:04.963Z,14.27
2019-05-01T19:38:12.077Z,12.87
2019-05-01T19:42:21.540Z,15.47
2019-05-01T19:46:27.631Z,13.53
2019-05-01T19:50:34.599Z,14.23
2019-05-01T19:54:41.606Z,15.80
2019-05-01T19:58:48.358Z,14.00
2019-05-01T20:02:59.048Z,12.87
2019-05-01T20:07:03.791Z,12.40
2019-05-01T20:11:10.679Z,14.53
2019-05-01T20:15:25.241Z,16.80
2019-05-01T20:19:32.437Z,14.50
2019-05-01T20:23:40.902Z,12.90
2019-05-01T20:27:53.123Z,15.50
2019-05-01T20:33:09.422Z,13.67
2019-05-01T20:37:43.383Z,12.30
2019-05-01T20:41:56.342Z,14.40
2019-05-01T20:46:21.519Z,14.80
2019-05-01T20:50:29.129Z,14.47
2019-05-01T20:54:47.153Z,14.67
2019-05-01T20:59:04.942Z,14.40
2019-05-01T21:03:14.301Z,14.83
2019-05-01T21:07:42.602Z,13.17
2019-05-01T21:12:04.974Z,14.87
2019-05-01T21:16:24.652Z,17.63
2019-05-01T21:20:43.886Z,14.57
2019-05-01T21:25:04.517Z,15.17
2019-05-01T21:29:14.032Z,13.87
2019-05-01T21:33:40.877Z,14.47
2019-05-01T21:37:49.830Z,14.00
2019-05-01T21:41:56.592Z,16.47
2019-05-01T21:46:04.524Z,14.53
2019-05-01T21:50:13.170Z,19.23
2019-05-01T21:54:20.627Z,15.20
2019-05-01T21:58:30.156Z,17.03
2019-05-01T22:02:36.762Z,18.30
2019-05-01T22:06:46.910Z,16.70
2019-05-01T22:10:52.462Z,19.97
2019-05-01T22:15:06.135Z,20.53
2019-05-01T22:19:17.669Z,19.37
2019-05-01T22:23:26.332Z,18.63
2019-05-01T22:27:37.436Z,16.07
2019-05-01T22:32:00.687Z,19.07
2019-05-01T22:36:08.267Z,19.43
2019-05-01T22:40:18.306Z,23.73
2019-05-01T22:44:25.397Z,24.37
2019-05-01T22:48:32.415Z,23.60
2019-05-01T22:52:39.337Z,22.90
2019-05-01T22:56:47.100Z,25.50
2019-05-01T23:00:56.162Z,28.87
2019-05-01T23:05:03.154Z,31.00
2019-05-01T23:09:13.805Z,29.50
2019-05-01T23:13:20.799Z,26.53
2019-05-01T23:17:39.599Z,30.70
2019-05-01T23:21:45.866Z,30.43
2019-05-01T23:25:53.816Z,29.27
2019-05-01T23:30:00.688Z,32.30
2019-05-01T23:34:07.509Z,33.43
2019-05-01T23:38:14.396Z,29.50
2019-05-01T23:42:21.359Z,29.63
2019-05-01T23:46:28.211Z,31.57
2019-05-01T23:50:35.281Z,32.97
2019-05-01T23:54:42.274Z,32.77
2019-05-01T23:58:49.056Z,32.53
